Time;durP1;ratioP1;P1;durP2;ratioP2;P2;SDS_P1;SDS_P2;PMS_P1;PMS_P2;Temp;Humidity;BMP_temperature;BMP_pressure;BME280_temperature;BME280_humidity;BME280_pressure;Samples;Min_cycle;Max_cycle;Signal;HPM_P1;HPM_P2
2023/07/27 00:01:36;;;;;;;5.10;3.93;;;;;;;17.44;56.76;98645.75;6972707;28;20275;-83
2023/07/27 00:04:57;;;;;;;5.00;3.50;;;;;;;17.58;56.39;98644.28;6972520;28;20354;-83
2023/07/27 00:08:20;;;;;;;4.17;3.77;;;;;;;17.84;55.88;98645.41;6972362;28;20952;-83
2023/07/27 00:11:42;;;;;;;5.73;4.10;;;;;;;17.89;55.99;98653.66;6973061;28;20280;-82
2023/07/27 00:15:04;;;;;;;4.03;3.37;;;;;;;17.96;55.72;98648.84;6972026;28;20212;-82
2023/07/27 00:18:25;;;;;;;4.17;3.77;;;;;;;18.02;55.56;98645.06;6971927;28;20264;-83
2023/07/27 00:21:47;;;;;;;3.70;3.30;;;;;;;17.64;56.90;98648.72;6973056;28;20370;-83
2023/07/27 00:25:10;;;;;;;6.17;3.70;;;;;;;17.34;57.00;98631.94;6972462;28;20294;-82
2023/07/27 00:28:31;;;;;;;5.53;3.70;;;;;;;17.70;56.55;98628.63;6972258;28;20234;-83
2023/07/27 00:31:53;;;;;;;4.60;3.60;;;;;;;17.65;56.82;98635.94;6972737;28;20295;-83
2023/07/27 00:35:14;;;;;;;4.00;3.70;;;;;;;17.60;56.77;98625.78;6972829;28;20807;-83
2023/07/27 00:38:36;;;;;;;4.90;3.70;;;;;;;17.65;56.74;98623.13;6971298;28;20224;-83
2023/07/27 00:41:58;;;;;;;4.90;3.87;;;;;;;17.87;55.92;98618.47;6974653;28;20236;-83
2023/07/27 00:45:20;;;;;;;3.63;3.33;;;;;;;18.11;55.06;98627.19;6977208;28;20354;-83
2023/07/27 00:48:44;;;;;;;4.17;3.60;;;;;;;17.70;55.40;98592.38;6968150;28;20199;-83
2023/07/27 00:52:07;;;;;;;3.73;3.40;;;;;;;18.16;54.31;98606.22;6976862;28;20225;-83
2023/07/27 00:55:29;;;;;;;4.93;4.07;;;;;;;18.14;54.60;98583.81;6976185;28;20234;-83
2023/07/27 00:58:52;;;;;;;6.47;3.77;;;;;;;17.78;55.37;98554.56;6976171;28;20289;-83
2023/07/27 01:02:13;;;;;;;4.07;3.47;;;;;;;17.71;55.05;98525.84;6976411;28;20218;-83
2023/07/27 01:05:37;;;;;;;6.50;3.77;;;;;;;17.49;55.61;98522.31;6976871;28;20254;-84
2023/07/27 01:08:59;;;;;;;4.17;3.77;;;;;;;18.00;55.42;98593.53;6976489;28;20217;-83
2023/07/27 01:12:28;;;;;;;4.53;3.73;;;;;;;17.93;55.66;98592.06;6976134;28;20608;-83
2023/07/27 01:15:57;;;;;;;6.33;3.47;;;;;;;17.43;57.02;98592.31;6977596;28;20272;-83
2023/07/27 01:19:43;;;;;;;4.33;3.67;;;;;;;17.19;57.70;98573.69;6977635;28;20230;-83
2023/07/27 01:23:34;;;;;;;3.90;3.50;;;;;;;18.13;54.82;98564.97;6975622;28;20195;-83
2023/07/27 01:27:29;;;;;;;3.83;3.50;;;;;;;18.37;53.68;98578.06;6975819;28;20213;-83
2023/07/27 01:30:53;;;;;;;4.23;3.10;;;;;;;18.56;53.41;98564.81;6977292;28;20267;-84
2023/07/27 01:34:18;;;;;;;4.63;3.63;;;;;;;18.51;52.57;98562.06;6976967;28;20242;-84
2023/07/27 01:37:41;;;;;;;3.57;3.20;;;;;;;18.86;52.54;98562.31;6976232;28;20209;-84
2023/07/27 01:41:03;;;;;;;4.63;3.40;;;;;;;18.35;54.03;98530.28;6976418;28;20317;-83
2023/07/27 01:44:26;;;;;;;3.80;3.40;;;;;;;18.39;54.32;98556.78;6975771;28;20267;-83
2023/07/27 01:47:50;;;;;;;4.20;3.60;;;;;;;18.17;54.71;98522.47;6975403;28;20212;-83
2023/07/27 01:51:13;;;;;;;6.17;3.33;;;;;;;17.48;56.83;98553.38;6974463;28;20587;-83
2023/07/27 01:54:36;;;;;;;3.60;3.30;;;;;;;18.12;55.30;98553.25;6967795;28;20293;-83
2023/07/27 01:57:59;;;;;;;5.63;3.60;;;;;;;17.97;55.62;98552.28;6974643;28;20323;-83
2023/07/27 02:01:21;;;;;;;4.37;3.50;;;;;;;18.22;55.67;98536.94;6975324;28;20226;-83
2023/07/27 02:04:44;;;;;;;4.40;3.67;;;;;;;17.84;56.22;98548.06;6975306;28;20245;-83
2023/07/27 02:08:05;;;;;;;3.90;3.50;;;;;;;18.25;55.63;98541.91;6973448;28;20293;-83
2023/07/27 02:11:27;;;;;;;4.10;3.70;;;;;;;18.12;55.85;98545.06;6974109;28;20222;-84
2023/07/27 02:14:55;;;;;;;4.10;3.70;;;;;;;18.25;55.50;98528.25;6974079;28;20208;-84
2023/07/27 02:18:18;;;;;;;4.37;3.73;;;;;;;18.15;55.06;98532.78;6973607;28;20211;-84
2023/07/27 02:21:42;;;;;;;4.77;3.57;;;;;;;18.39;54.70;98526.75;6974638;28;20320;-82
2023/07/27 02:25:05;;;;;;;5.57;3.70;;;;;;;18.46;54.49;98527.34;6975053;28;20217;-82
2023/07/27 02:28:28;;;;;;;3.90;3.57;;;;;;;18.29;54.39;98487.63;6973115;28;20251;-82
2023/07/27 02:31:50;;;;;;;3.67;3.37;;;;;;;18.43;54.73;98518.84;6973767;28;20656;-82
2023/07/27 02:35:11;;;;;;;4.10;3.70;;;;;;;18.27;54.81;98512.44;6973763;28;20275;-82
2023/07/27 02:38:34;;;;;;;4.20;3.80;;;;;;;18.33;54.64;98513.34;6973100;28;20682;-83
2023/07/27 02:41:56;;;;;;;4.73;3.57;;;;;;;18.33;54.26;98524.25;6972613;28;20380;-82
2023/07/27 02:45:17;;;;;;;6.53;3.90;;;;;;;18.53;53.55;98510.75;6973549;28;20278;-83
2023/07/27 02:48:39;;;;;;;3.90;3.60;;;;;;;18.44;53.63;98504.13;6971433;28;20568;-83
2023/07/27 02:52:00;;;;;;;3.83;3.53;;;;;;;18.14;53.79;98476.56;6972806;28;20343;-83
2023/07/27 02:55:23;;;;;;;5.63;3.40;;;;;;;18.20;53.96;98516.47;6972804;28;20295;-83
2023/07/27 02:58:44;;;;;;;3.97;3.67;;;;;;;18.39;53.55;98504.91;6972343;28;20252;-82
2023/07/27 03:02:06;;;;;;;4.00;3.60;;;;;;;18.37;53.75;98488.00;6972606;28;20286;-83
2023/07/27 03:05:28;;;;;;;6.17;3.50;;;;;;;17.74;54.77;98470.81;6971706;28;20345;-83
2023/07/27 03:08:49;;;;;;;3.90;3.60;;;;;;;17.80;55.28;98497.03;6972371;28;20261;-83
2023/07/27 03:12:12;;;;;;;4.37;3.50;;;;;;;18.16;54.72;98502.53;6972742;28;20260;-83
2023/07/27 03:15:34;;;;;;;4.07;3.67;;;;;;;18.28;54.67;98492.25;6972314;28;20565;-83
2023/07/27 03:18:56;;;;;;;3.73;3.00;;;;;;;17.97;54.92;98493.09;6972097;28;20268;-83
2023/07/27 03:22:20;;;;;;;3.70;3.40;;;;;;;18.08;54.91;98470.28;6972290;28;20207;-83
2023/07/27 03:25:43;;;;;;;5.17;3.53;;;;;;;18.16;54.86;98499.78;6969553;28;20205;-83
2023/07/27 03:29:06;;;;;;;5.00;3.47;;;;;;;17.88;55.40;98491.09;6971819;28;20283;-83
2023/07/27 03:32:27;;;;;;;4.83;3.80;;;;;;;18.14;54.76;98484.75;6972029;28;20212;-84
2023/07/27 03:35:49;;;;;;;10.47;4.20;;;;;;;18.13;54.86;98497.59;6971599;28;20265;-83
2023/07/27 03:39:10;;;;;;;3.87;3.30;;;;;;;18.12;55.13;98504.16;6971516;28;20709;-83
2023/07/27 03:42:32;;;;;;;5.30;3.73;;;;;;;18.21;55.13;98497.09;6971293;28;20363;-83
2023/07/27 03:45:54;;;;;;;4.93;3.67;;;;;;;18.35;55.08;98494.78;6972697;28;20556;-83
2023/07/27 03:49:16;;;;;;;4.93;3.97;;;;;;;18.01;55.40;98479.75;6970333;28;20227;-83
2023/07/27 03:52:38;;;;;;;5.90;4.00;;;;;;;17.40;55.04;98406.69;6970933;28;20238;-83
2023/07/27 03:56:01;;;;;;;4.67;3.67;;;;;;;18.07;55.85;98460.44;6963852;28;20288;-84
2023/07/27 03:59:22;;;;;;;5.17;4.00;;;;;;;17.87;56.73;98468.44;6997260;28;20703;-84
2023/07/27 04:02:45;;;;;;;4.97;3.77;;;;;;;18.06;55.99;98460.69;6998936;28;20299;-84
2023/07/27 04:06:07;;;;;;;5.17;3.37;;;;;;;18.21;55.66;98453.44;6998059;28;20294;-82
2023/07/27 04:09:28;;;;;;;4.00;3.60;;;;;;;18.26;55.28;98463.56;6999939;28;20224;-83
2023/07/27 04:12:50;;;;;;;3.80;3.40;;;;;;;18.29;55.38;98455.66;7000030;28;20572;-82
2023/07/27 04:16:11;;;;;;;5.33;3.60;;;;;;;18.35;55.11;98465.56;7000463;28;20238;-82
2023/07/27 04:19:35;;;;;;;4.77;3.93;;;;;;;18.70;54.58;98456.78;7004624;28;20226;-83
2023/07/27 04:22:56;;;;;;;6.03;3.77;;;;;;;18.71;54.71;98455.69;7004601;28;20542;-83
2023/07/27 04:26:18;;;;;;;4.53;3.50;;;;;;;18.70;55.13;98454.06;7004199;28;20687;-83
2023/07/27 04:29:39;;;;;;;4.20;3.77;;;;;;;18.61;55.22;98452.91;7004612;28;20728;-82
2023/07/27 04:33:01;;;;;;;3.60;3.33;;;;;;;18.48;55.78;98437.84;7004745;28;20300;-83
2023/07/27 04:36:24;;;;;;;3.50;3.20;;;;;;;18.59;54.98;98450.47;7003858;28;20726;-83
2023/07/27 04:39:45;;;;;;;4.20;3.33;;;;;;;18.61;55.01;98450.16;6987063;28;20269;-83
2023/07/27 04:43:07;;;;;;;3.53;3.23;;;;;;;18.47;55.43;98429.91;6978326;28;20213;-83
2023/07/27 04:46:28;;;;;;;6.13;3.73;;;;;;;18.51;54.55;98401.00;6978685;28;20276;-83
2023/07/27 04:49:52;;;;;;;5.00;3.10;;;;;;;18.84;53.71;98431.47;6980143;28;20249;-84
2023/07/27 04:53:27;;;;;;;3.77;3.20;;;;;;;18.86;53.27;98388.28;6960402;28;20238;-83
2023/07/27 04:56:48;;;;;;;4.03;3.60;;;;;;;18.83;52.31;98437.19;6948264;28;20722;-83
2023/07/27 05:00:10;;;;;;;5.83;3.30;;;;;;;19.01;51.72;98398.47;6953134;28;20304;-83
2023/07/27 05:03:32;;;;;;;3.30;3.00;;;;;;;19.55;51.26;98416.09;6950102;28;20610;-83
2023/07/27 05:06:53;;;;;;;3.30;3.00;;;;;;;19.51;50.96;98417.75;6966878;28;20241;-83
2023/07/27 05:10:16;;;;;;;3.27;2.97;;;;;;;19.69;51.16;98419.97;6977284;28;20748;-83
2023/07/27 05:13:38;;;;;;;6.63;3.20;;;;;;;19.57;51.16;98419.41;6975922;28;20300;-84
2023/07/27 05:16:59;;;;;;;3.87;3.13;;;;;;;19.51;51.52;98409.53;6975823;28;20271;-84
2023/07/27 05:20:21;;;;;;;3.33;2.70;;;;;;;19.28;51.76;98404.59;6976872;28;20372;-83
2023/07/27 05:23:47;;;;;;;3.77;2.70;;;;;;;19.78;51.04;98415.56;6975046;28;20245;-83
2023/07/27 05:27:10;;;;;;;3.87;3.00;;;;;;;20.01;50.96;98412.28;6974724;28;20667;-83
2023/07/27 05:30:32;;;;;;;3.83;3.20;;;;;;;20.00;50.47;98408.75;6975485;28;20223;-83
2023/07/27 05:33:54;;;;;;;3.17;2.87;;;;;;;20.51;50.06;98412.25;6952489;28;20340;-84
2023/07/27 05:37:15;;;;;;;3.30;3.00;;;;;;;20.66;49.66;98415.75;6967185;28;20899;-84
2023/07/27 05:40:37;;;;;;;3.60;3.00;;;;;;;20.71;49.44;98413.00;6974933;28;20241;-84
2023/07/27 05:44:00;;;;;;;3.30;3.00;;;;;;;21.04;48.80;98408.78;6976066;28;20206;-84
2023/07/27 05:47:21;;;;;;;3.60;3.30;;;;;;;20.83;50.02;98414.31;6981632;28;20673;-84
2023/07/27 05:50:43;;;;;;;4.93;2.93;;;;;;;20.61;49.63;98407.56;6979011;28;20432;-84
2023/07/27 05:54:04;;;;;;;4.60;3.37;;;;;;;20.80;50.23;98397.59;6976956;28;20210;-84
2023/07/27 05:57:26;;;;;;;4.27;3.30;;;;;;;20.36;49.64;98278.94;6974462;28;20234;-83
2023/07/27 06:00:49;;;;;;;4.33;3.70;;;;;;;21.23;50.11;98409.78;6976093;28;20261;-83
2023/07/27 06:04:11;;;;;;;4.13;3.60;;;;;;;21.43;49.69;98414.03;6976524;28;20199;-84
2023/07/27 06:07:33;;;;;;;4.63;3.83;;;;;;;21.27;50.52;98411.66;6975750;28;20213;-83
2023/07/27 06:11:03;;;;;;;6.77;3.50;;;;;;;21.23;51.10;98407.84;6975678;28;20368;-83
2023/07/27 06:14:25;;;;;;;4.67;3.07;;;;;;;21.03;49.81;98413.44;6976316;28;20198;-83
2023/07/27 06:17:48;;;;;;;3.70;3.27;;;;;;;21.25;49.93;98414.69;7002751;28;20203;-83
2023/07/27 06:21:09;;;;;;;3.63;3.00;;;;;;;21.58;49.18;98408.44;7001309;28;20305;-82
2023/07/27 06:24:31;;;;;;;4.60;3.70;;;;;;;21.60;50.35;98408.16;6978548;28;20206;-83
2023/07/27 06:27:52;;;;;;;5.07;3.67;;;;;;;21.73;50.06;98415.78;6977916;28;20218;-82
2023/07/27 06:31:14;;;;;;;5.73;4.03;;;;;;;21.60;50.69;98408.97;6978273;28;20372;-83
2023/07/27 06:34:37;;;;;;;6.70;3.20;;;;;;;21.23;51.23;98407.84;6977658;28;20687;-83
2023/07/27 06:37:58;;;;;;;5.40;3.70;;;;;;;21.82;50.52;98412.13;6976574;28;20289;-83
2023/07/27 06:41:25;;;;;;;4.07;3.40;;;;;;;21.85;50.25;98403.34;6975583;28;20234;-83
2023/07/27 06:44:46;;;;;;;5.87;2.97;;;;;;;22.51;47.99;98395.31;6977025;28;20206;-84
2023/07/27 06:48:07;;;;;;;4.50;2.47;;;;;;;23.00;44.64;98388.38;6976363;28;20358;-84
2023/07/27 06:51:30;;;;;;;3.17;2.30;;;;;;;23.10;43.88;98371.75;6977984;28;20310;-84
2023/07/27 06:54:52;;;;;;;3.80;2.60;;;;;;;23.18;43.94;98373.06;6977080;28;20244;-84
2023/07/27 06:58:13;;;;;;;2.80;2.43;;;;;;;23.25;43.91;98366.06;6975632;28;20693;-84
2023/07/27 07:01:36;;;;;;;3.23;2.70;;;;;;;23.15;44.52;98376.38;6977561;28;20231;-83
2023/07/27 07:04:57;;;;;;;2.73;2.40;;;;;;;23.05;44.67;98384.75;6975574;28;20344;-83
2023/07/27 07:08:20;;;;;;;3.97;2.20;;;;;;;23.26;43.27;98353.94;6975349;28;20791;-83
2023/07/27 07:11:42;;;;;;;2.60;2.30;;;;;;;22.89;44.36;98347.59;6976271;28;20785;-84
2023/07/27 07:15:04;;;;;;;4.87;2.60;;;;;;;23.23;43.68;98381.22;6976529;28;20216;-83
2023/07/27 07:18:26;;;;;;;3.70;2.30;;;;;;;23.24;42.71;98361.69;6975646;28;20207;-83
2023/07/27 07:21:47;;;;;;;9.27;3.00;;;;;;;23.38;43.08;98367.25;6975510;28;20738;-84
2023/07/27 07:25:10;;;;;;;3.67;2.47;;;;;;;23.39;42.57;98372.47;6974785;28;20287;-83
2023/07/27 07:28:32;;;;;;;3.17;2.40;;;;;;;23.52;42.65;98365.38;6975724;28;20519;-83
2023/07/27 07:31:53;;;;;;;4.10;2.60;;;;;;;23.77;42.52;98363.06;6976091;28;20225;-83
2023/07/27 07:35:15;;;;;;;3.63;2.60;;;;;;;23.68;42.47;98367.63;6975948;28;20276;-83
2023/07/27 07:38:37;;;;;;;3.50;2.40;;;;;;;23.46;42.17;98361.91;6974767;28;20216;-83
2023/07/27 07:42:00;;;;;;;2.53;2.33;;;;;;;23.65;42.50;98365.44;6974119;28;20273;-83
2023/07/27 07:45:21;;;;;;;3.87;2.63;;;;;;;23.75;42.24;98351.53;6976310;28;20604;-84
2023/07/27 07:48:43;;;;;;;4.43;2.57;;;;;;;23.67;42.24;98332.13;6975089;28;20209;-83
2023/07/27 07:52:05;;;;;;;2.40;2.20;;;;;;;23.83;42.44;98339.81;6930686;22;20725;-83
2023/07/27 07:55:29;;;;;;;4.63;2.50;;;;;;;23.88;42.51;98347.19;6920344;28;20282;-84
2023/07/27 07:58:52;;;;;;;3.63;2.53;;;;;;;23.43;42.95;98314.91;6913760;28;20266;-83
2023/07/27 08:02:14;;;;;;;2.50;2.30;;;;;;;23.53;43.32;98340.31;6920224;28;20323;-83
2023/07/27 08:05:36;;;;;;;2.60;2.40;;;;;;;23.35;44.02;98334.81;6921526;28;20206;-83
2023/07/27 08:09:02;;;;;;;3.43;2.50;;;;;;;23.35;43.51;98335.66;6920125;28;20217;-83
2023/07/27 08:12:24;;;;;;;2.73;2.30;;;;;;;22.84;44.24;98262.41;6920386;28;20959;-83
2023/07/27 08:15:52;;;;;;;3.83;2.30;;;;;;;23.01;44.87;98298.47;6919882;28;20569;-83
2023/07/27 08:19:14;;;;;;;3.37;2.60;;;;;;;23.19;45.35;98314.97;6918052;28;20829;-82
2023/07/27 08:22:36;;;;;;;3.33;2.73;;;;;;;23.46;44.97;98326.13;6919600;28;20208;-83
2023/07/27 08:25:58;;;;;;;3.97;2.60;;;;;;;23.27;45.97;98316.25;6919438;28;20402;-83
2023/07/27 08:29:20;;;;;;;3.47;2.70;;;;;;;22.83;45.54;98324.81;6917765;28;20307;-82
2023/07/27 08:32:43;;;;;;;3.97;2.60;;;;;;;23.15;45.23;98321.34;6918815;28;20254;-84
2023/07/27 08:36:06;;;;;;;4.57;2.57;;;;;;;23.12;44.97;98313.72;6915522;28;20226;-84
2023/07/27 08:39:27;;;;;;;2.70;2.50;;;;;;;23.44;44.55;98308.28;6891789;28;20724;-83
2023/07/27 08:42:50;;;;;;;3.40;2.93;;;;;;;23.66;44.25;98312.03;6904660;28;20292;-83
2023/07/27 08:46:12;;;;;;;3.10;2.60;;;;;;;23.48;44.34;98304.63;6923134;28;20212;-86
2023/07/27 08:49:35;;;;;;;2.90;2.60;;;;;;;23.56;44.45;98309.47;6922541;28;20316;-83
2023/07/27 08:52:57;;;;;;;3.40;2.70;;;;;;;23.61;44.10;98303.84;6920592;28;20215;-83
2023/07/27 08:56:18;;;;;;;3.27;2.43;;;;;;;23.82;44.20;98290.56;6919604;28;20240;-83
2023/07/27 08:59:40;;;;;;;3.77;2.47;;;;;;;23.94;44.15;98266.13;6918105;28;20911;-83
2023/07/27 09:03:02;;;;;;;4.20;2.80;;;;;;;23.92;44.41;98285.72;6921052;28;20220;-82
2023/07/27 09:06:38;;;;;;;2.80;2.47;;;;;;;23.60;44.50;98214.13;6927624;28;20280;-82
2023/07/27 09:09:59;;;;;;;4.70;2.30;;;;;;;23.72;44.49;98221.94;6924378;28;20687;-82
2023/07/27 09:13:21;;;;;;;3.67;3.00;;;;;;;23.95;45.09;98243.78;6924326;28;20562;-82
2023/07/27 09:16:42;;;;;;;2.60;2.40;;;;;;;24.05;45.41;98286.84;6913917;28;20215;-82
2023/07/27 09:20:05;;;;;;;4.73;2.90;;;;;;;23.89;45.22;98283.56;6922990;28;20227;-83
2023/07/27 09:23:29;;;;;;;5.17;2.43;;;;;;;24.01;45.44;98270.13;6916142;28;20578;-83
2023/07/27 09:26:53;;;;;;;3.23;2.70;;;;;;;23.93;45.84;98273.59;6924706;28;20724;-83
2023/07/27 09:30:17;;;;;;;3.30;3.00;;;;;;;23.52;46.68;98217.59;6930400;28;20813;-83
2023/07/27 09:33:38;;;;;;;4.77;2.93;;;;;;;23.88;47.02;98279.19;6931067;28;20272;-83
2023/07/27 09:37:02;;;;;;;3.10;2.80;;;;;;;23.74;47.32;98275.56;6932985;28;20211;-82
2023/07/27 09:40:25;;;;;;;5.53;2.40;;;;;;;23.58;47.23;98268.69;6936670;28;20236;-83
2023/07/27 09:43:47;;;;;;;4.30;3.90;;;;;;;23.85;48.37;98288.03;6937268;28;20234;-83
2023/07/27 09:47:18;;;;;;;9.07;7.47;;;;;;;23.95;48.46;98289.81;6936385;28;20206;-84
2023/07/27 09:50:40;;;;;;;5.13;2.93;;;;;;;23.87;49.53;98294.06;6931631;28;20249;-82
2023/07/27 09:54:02;;;;;;;2.80;2.60;;;;;;;23.89;48.87;98291.81;6929362;28;20246;-84
2023/07/27 09:57:25;;;;;;;4.13;2.70;;;;;;;23.95;48.52;98282.34;6921507;28;20253;-83
2023/07/27 10:00:48;;;;;;;3.50;2.90;;;;;;;24.07;49.64;98290.13;6919307;28;20239;-86
2023/07/27 10:04:09;;;;;;;5.37;3.20;;;;;;;24.12;48.19;98276.28;6918143;28;20223;-84
2023/07/27 10:07:31;;;;;;;3.77;2.60;;;;;;;24.10;49.04;98279.31;6917810;28;20358;-83
2023/07/27 10:10:53;;;;;;;3.83;2.80;;;;;;;23.91;49.72;98272.25;6918153;28;20385;-83
2023/07/27 10:14:20;;;;;;;4.27;3.00;;;;;;;24.04;48.31;98264.03;6918365;28;20264;-84
2023/07/27 10:17:45;;;;;;;2.80;2.50;;;;;;;24.13;48.09;98250.34;6915279;28;20257;-86
2023/07/27 10:21:23;;;;;;;5.33;2.83;;;;;;;24.22;48.30;98245.75;6919261;28;20384;-83
2023/07/27 10:24:52;;;;;;;2.83;2.57;;;;;;;24.26;48.34;98249.53;6920247;28;20252;-83
2023/07/27 10:28:29;;;;;;;5.50;3.20;;;;;;;24.16;49.46;98247.81;6925628;28;20197;-83
2023/07/27 10:32:03;;;;;;;3.27;2.63;;;;;;;24.30;48.48;98251.38;6919883;28;20666;-82
2023/07/27 10:35:25;;;;;;;4.00;2.93;;;;;;;24.04;47.82;98263.19;6920429;28;20673;-82
2023/07/27 10:38:53;;;;;;;8.17;3.10;;;;;;;23.97;48.30;98247.09;6919881;28;20208;-83
2023/07/27 10:42:16;;;;;;;4.87;2.60;;;;;;;24.05;47.63;98205.06;6893283;28;20720;-83
2023/07/27 10:45:38;;;;;;;2.93;2.33;;;;;;;24.21;47.95;98235.84;6892712;28;20558;-84
2023/07/27 10:49:08;;;;;;;3.20;2.67;;;;;;;23.95;48.19;98232.78;6891987;28;20261;-82
2023/07/27 10:52:32;;;;;;;3.17;2.70;;;;;;;24.08;47.35;98234.72;6892730;28;20285;-83
2023/07/27 10:55:53;;;;;;;3.07;2.77;;;;;;;24.16;48.68;98234.03;6892868;28;20212;-83
2023/07/27 10:59:15;;;;;;;4.93;2.30;;;;;;;24.44;46.89;98237.59;6891746;28;20315;-83
2023/07/27 11:02:41;;;;;;;5.37;3.00;;;;;;;24.63;46.39;98225.34;6892199;28;20235;-83
2023/07/27 11:06:05;;;;;;;4.37;2.63;;;;;;;24.66;47.61;98210.91;6891359;28;20198;-84
2023/07/27 11:09:26;;;;;;;2.97;2.63;;;;;;;24.08;46.44;98179.63;6895145;28;20352;-83
2023/07/27 11:12:49;;;;;;;3.37;2.50;;;;;;;24.47;46.61;98190.94;6918210;28;20210;-83
2023/07/27 11:16:10;;;;;;;3.47;2.63;;;;;;;24.67;45.84;98215.31;6910498;28;20313;-82
2023/07/27 11:19:32;;;;;;;5.03;3.40;;;;;;;24.77;45.22;98203.25;6917980;28;20715;-82
2023/07/27 11:22:56;;;;;;;7.57;5.63;;;;;;;25.07;45.58;98192.28;6911654;28;20315;-82
2023/07/27 11:26:17;;;;;;;25.10;12.77;;;;;;;25.05;45.68;98197.31;6916370;28;20216;-83
2023/07/27 11:29:40;;;;;;;10.37;8.03;;;;;;;25.06;45.20;98198.94;6917316;28;20240;-82
2023/07/27 11:33:02;;;;;;;2.70;2.50;;;;;;;25.19;44.64;98178.75;6918224;28;20642;-82
2023/07/27 11:36:27;;;;;;;3.60;2.50;;;;;;;25.42;45.40;98185.13;6917381;28;20345;-83
2023/07/27 11:39:50;;;;;;;3.97;2.50;;;;;;;25.44;44.99;98174.56;6916597;28;20841;-83
2023/07/27 11:43:11;;;;;;;3.00;2.70;;;;;;;25.09;44.92;98161.66;6917511;28;20229;-83
2023/07/27 11:46:40;;;;;;;3.57;2.43;;;;;;;24.99;44.21;98146.16;6916934;28;20233;-83
2023/07/27 11:50:02;;;;;;;3.97;3.13;;;;;;;25.41;44.34;98150.34;6916471;28;20387;-83
2023/07/27 11:53:25;;;;;;;4.37;2.70;;;;;;;25.56;43.88;98141.66;6916780;28;20246;-84
2023/07/27 11:56:51;;;;;;;2.63;2.43;;;;;;;25.68;43.68;98148.22;6917131;28;20212;-83
2023/07/27 12:00:15;;;;;;;3.07;2.70;;;;;;;25.62;43.56;98152.25;6916606;28;20235;-83
2023/07/27 12:03:37;;;;;;;2.80;2.40;;;;;;;25.75;44.32;98156.88;6917914;28;20280;-83
2023/07/27 12:06:59;;;;;;;2.47;2.27;;;;;;;25.62;44.21;98157.78;6917202;28;20303;-84
2023/07/27 12:10:22;;;;;;;3.63;2.80;;;;;;;25.71;45.46;98155.88;6916971;28;20238;-83
2023/07/27 12:13:46;;;;;;;3.83;2.60;;;;;;;25.58;45.86;98156.78;6917415;28;20233;-84
2023/07/27 12:17:10;;;;;;;3.63;2.90;;;;;;;25.58;45.35;98147.69;6917069;28;20285;-83
2023/07/27 12:20:34;;;;;;;4.57;2.60;;;;;;;25.80;46.34;98158.66;6916829;28;20705;-84
2023/07/27 12:23:55;;;;;;;3.07;2.53;;;;;;;25.65;46.72;98137.81;6917070;28;20229;-84
2023/07/27 12:27:17;;;;;;;2.63;2.33;;;;;;;25.71;46.84;98160.59;6916119;28;20207;-83
2023/07/27 12:30:39;;;;;;;4.97;2.80;;;;;;;25.45;47.13;98154.94;6917209;28;20273;-84
2023/07/27 12:34:01;;;;;;;2.50;2.10;;;;;;;24.92;48.75;98161.50;6917326;28;20291;-84
2023/07/27 12:37:23;;;;;;;4.23;2.67;;;;;;;25.16;48.05;98146.28;6918224;28;20295;-84
2023/07/27 12:40:44;;;;;;;3.50;2.50;;;;;;;25.49;48.00;98164.19;6922224;28;20234;-84
2023/07/27 12:44:06;;;;;;;3.57;2.57;;;;;;;25.52;49.60;98157.22;6922978;28;20218;-84
2023/07/27 12:47:29;;;;;;;2.93;2.27;;;;;;;25.56;47.88;98134.22;6920862;28;20351;-84
2023/07/27 12:50:50;;;;;;;3.37;2.50;;;;;;;25.63;48.40;98156.66;6921966;28;20256;-84
2023/07/27 12:54:12;;;;;;;4.80;2.47;;;;;;;25.65;49.34;98161.88;6923732;28;20299;-84
2023/07/27 12:57:34;;;;;;;3.37;2.80;;;;;;;25.73;49.21;98155.56;6920422;28;20716;-84
2023/07/27 13:00:55;;;;;;;2.80;2.60;;;;;;;25.66;49.70;98166.25;6921886;28;20412;-84
2023/07/27 13:04:18;;;;;;;4.53;2.73;;;;;;;25.62;50.83;98166.06;6920780;28;20294;-84
2023/07/27 13:07:43;;;;;;;3.60;2.83;;;;;;;25.51;50.74;98148.16;6920785;28;20692;-85
2023/07/27 13:11:05;;;;;;;4.57;2.73;;;;;;;25.36;51.26;98165.09;6921164;28;20229;-84
2023/07/27 13:14:26;;;;;;;3.83;2.80;;;;;;;25.21;52.59;98157.19;6921633;28;20295;-85
2023/07/27 13:17:52;;;;;;;2.60;2.40;;;;;;;25.06;52.79;98107.91;6920224;28;20301;-85
2023/07/27 13:21:15;;;;;;;2.90;2.53;;;;;;;25.71;52.29;98155.06;6894757;28;20232;-83
2023/07/27 13:24:36;;;;;;;3.80;2.70;;;;;;;25.69;52.92;98149.03;6906292;28;20217;-83
2023/07/27 13:27:58;;;;;;;3.00;2.80;;;;;;;25.39;50.55;98142.41;6921948;28;20695;-84
2023/07/27 13:31:22;;;;;;;3.30;2.93;;;;;;;25.70;51.23;98139.59;6900129;28;20289;-83
2023/07/27 13:34:44;;;;;;;2.97;2.50;;;;;;;25.51;52.34;98139.03;6894149;28;20207;-84
2023/07/27 13:38:07;;;;;;;2.87;2.50;;;;;;;25.79;52.91;98135.75;6916892;28;20287;-84
2023/07/27 13:41:28;;;;;;;4.43;2.63;;;;;;;26.08;52.09;98141.56;6920683;28;20289;-84
2023/07/27 13:44:50;;;;;;;3.47;2.47;;;;;;;26.00;51.56;98134.06;6921010;28;20322;-84
2023/07/27 13:48:11;;;;;;;2.73;2.47;;;;;;;26.02;51.76;98133.75;6918803;28;20212;-84
2023/07/27 13:51:33;;;;;;;5.27;3.10;;;;;;;26.09;52.40;98134.09;6920510;28;20265;-84
2023/07/27 13:54:56;;;;;;;2.90;2.60;;;;;;;26.10;52.29;98127.44;6923717;28;20234;-84
2023/07/27 13:58:17;;;;;;;3.37;2.70;;;;;;;26.14;51.74;98120.94;6920653;28;20212;-84
2023/07/27 14:01:39;;;;;;;3.43;2.80;;;;;;;25.98;51.98;98128.06;6917851;28;20304;-85
2023/07/27 14:05:00;;;;;;;3.20;2.83;;;;;;;25.82;52.59;98123.25;6900407;28;20243;-84
2023/07/27 14:08:22;;;;;;;2.73;2.30;;;;;;;25.69;52.12;98104.84;6889841;28;20628;-84
2023/07/27 14:11:45;;;;;;;2.77;2.50;;;;;;;25.37;53.10;98121.75;6902448;28;20274;-84
2023/07/27 14:15:08;;;;;;;4.90;3.67;;;;;;;25.49;53.39;98128.31;6918365;28;20209;-85
2023/07/27 14:18:29;;;;;;;5.77;2.87;;;;;;;24.79;55.06;98094.25;6918108;28;20580;-85
2023/07/27 14:21:51;;;;;;;3.13;2.70;;;;;;;25.03;53.46;98121.53;6895825;28;20292;-84
2023/07/27 14:25:12;;;;;;;5.03;2.67;;;;;;;25.23;53.63;98119.06;6890591;28;20216;-84
2023/07/27 14:28:35;;;;;;;3.40;2.70;;;;;;;25.27;53.53;98114.56;6890163;28;20246;-84
2023/07/27 14:31:57;;;;;;;2.77;2.47;;;;;;;25.39;52.46;98122.25;6892228;28;20323;-84
2023/07/27 14:35:20;;;;;;;3.73;2.43;;;;;;;25.18;52.51;98101.81;6890077;28;20361;-84
2023/07/27 14:38:42;;;;;;;3.90;2.73;;;;;;;25.25;53.62;98114.06;6891025;28;20204;-84
2023/07/27 14:42:03;;;;;;;2.47;2.27;;;;;;;24.62;53.10;97988.56;6890802;28;20235;-83
2023/07/27 14:45:27;;;;;;;2.70;2.50;;;;;;;25.22;53.26;98113.84;6890022;28;20301;-84
2023/07/27 14:48:48;;;;;;;4.13;2.30;;;;;;;24.93;52.84;98058.31;6890139;28;20300;-83
2023/07/27 14:52:10;;;;;;;3.77;2.57;;;;;;;25.31;53.39;98107.25;6891063;28;20632;-84
2023/07/27 14:55:31;;;;;;;3.40;2.60;;;;;;;25.43;53.57;98110.25;6904423;28;20296;-83
2023/07/27 14:58:53;;;;;;;2.43;2.23;;;;;;;25.67;52.27;98101.59;6917896;28;20218;-83
2023/07/27 15:02:16;;;;;;;2.10;2.00;;;;;;;25.57;52.07;98110.16;6918579;28;20265;-83
2023/07/27 15:05:37;;;;;;;2.50;2.30;;;;;;;25.53;52.29;98101.69;6917503;28;20297;-86
2023/07/27 15:09:00;;;;;;;6.87;2.63;;;;;;;25.62;51.65;98098.97;6917008;28;20244;-84
2023/07/27 15:12:21;;;;;;;2.60;2.40;;;;;;;25.13;52.82;98021.94;6916030;28;20695;-83
2023/07/27 15:15:43;;;;;;;2.73;2.40;;;;;;;25.72;52.63;98101.47;6916100;28;20297;-84
2023/07/27 15:19:12;;;;;;;2.63;2.43;;;;;;;25.71;53.60;98080.50;6913519;28;20296;-84
2023/07/27 15:22:34;;;;;;;2.80;2.60;;;;;;;25.80;54.10;98098.72;6916524;28;20276;-83
2023/07/27 15:25:57;;;;;;;2.83;2.47;;;;;;;25.64;53.50;98066.31;6915917;28;20533;-84
2023/07/27 15:29:18;;;;;;;4.93;2.77;;;;;;;25.75;53.49;98062.97;6916055;28;20728;-83
2023/07/27 15:32:40;;;;;;;3.07;2.80;;;;;;;26.04;53.12;98088.09;6915760;28;20302;-83
2023/07/27 15:36:04;;;;;;;3.30;2.50;;;;;;;26.04;52.90;98079.81;6916087;28;20226;-83
2023/07/27 15:39:25;;;;;;;2.67;2.47;;;;;;;26.14;52.68;98073.16;6916268;28;20283;-84
2023/07/27 15:42:47;;;;;;;4.40;2.80;;;;;;;26.25;52.75;98066.97;6916319;28;20231;-84
2023/07/27 15:46:08;;;;;;;3.00;2.50;;;;;;;26.28;52.15;98068.28;6915839;28;20389;-83
2023/07/27 15:49:30;;;;;;;4.03;3.10;;;;;;;26.49;52.01;98072.06;6916031;28;20386;-83
2023/07/27 15:52:52;;;;;;;3.10;2.80;;;;;;;26.43;51.33;98062.28;6916071;28;20215;-84
2023/07/27 15:56:14;;;;;;;3.17;2.87;;;;;;;26.34;51.03;98055.94;6917192;28;20263;-83